createdAt,value
2018-12-04T00:01:55.960Z,93.03
2018-12-04T00:04:24.807Z,92.63
2018-12-04T00:06:53.512Z,92.09
2018-12-04T00:09:22.290Z,93.42
2018-12-04T00:11:50.935Z,92.08
2018-12-04T00:14:19.587Z,92.38
2018-12-04T00:16:48.244Z,92.23
2018-12-04T00:19:16.928Z,93.32
2018-12-04T00:21:45.577Z,92.40
2018-12-04T00:24:14.239Z,92.22
2018-12-04T00:26:42.947Z,91.97
2018-12-04T00:29:11.810Z,91.97
2018-12-04T00:31:40.504Z,92.16
2018-12-04T00:34:09.184Z,92.22
2018-12-04T00:36:37.806Z,91.68
2018-12-04T00:39:08.010Z,92.18
2018-12-04T00:41:36.678Z,91.11
2018-12-04T00:44:05.463Z,91.27
2018-12-04T00:46:34.122Z,90.48
2018-12-04T00:49:02.819Z,89.84
2018-12-04T00:51:31.480Z,90.37
2018-12-04T00:54:00.147Z,90.42
2018-12-04T00:56:28.768Z,90.77
2018-12-04T00:58:57.444Z,89.43
2018-12-04T01:01:26.160Z,89.67
2018-12-04T01:03:54.877Z,87.91
2018-12-04T01:06:23.522Z,87.59
2018-12-04T01:08:52.184Z,87.17
2018-12-04T01:11:21.812Z,87.36
2018-12-04T01:13:50.502Z,87.10
2018-12-04T01:16:19.165Z,87.98
2018-12-04T01:18:47.825Z,87.90
2018-12-04T01:21:16.572Z,88.34
2018-12-04T01:23:45.245Z,87.49
2018-12-04T01:26:13.937Z,88.38
2018-12-04T01:28:42.711Z,89.14
2018-12-04T01:31:11.348Z,89.57
2018-12-04T01:33:40.047Z,90.35
2018-12-04T01:36:08.786Z,90.17
2018-12-04T01:38:37.451Z,91.42
2018-12-04T01:41:06.156Z,91.27
2018-12-04T01:43:35.002Z,90.40
2018-12-04T01:46:03.710Z,89.89
2018-12-04T01:48:33.277Z,90.29
2018-12-04T01:51:01.897Z,89.97
2018-12-04T01:53:30.536Z,89.02
2018-12-04T01:55:59.187Z,89.80
2018-12-04T01:58:27.909Z,90.30
2018-12-04T02:00:56.539Z,90.96
2018-12-04T02:03:25.292Z,91.28
2018-12-04T02:05:54.144Z,91.12
2018-12-04T02:08:22.912Z,91.16
2018-12-04T02:10:51.555Z,91.58
2018-12-04T02:13:20.218Z,92.30
2018-12-04T02:15:48.844Z,92.04
2018-12-04T02:18:17.488Z,92.53
2018-12-04T02:20:46.335Z,91.97
2018-12-04T02:23:14.976Z,92.33
2018-12-04T02:25:43.653Z,91.59
2018-12-04T02:28:12.508Z,91.76
2018-12-04T02:30:41.360Z,92.01
2018-12-04T02:33:10.057Z,91.55
2018-12-04T02:35:38.725Z,91.92
2018-12-04T02:38:07.386Z,92.15
2018-12-04T02:40:36.069Z,92.38
2018-12-04T02:43:04.715Z,90.75
2018-12-04T02:45:33.370Z,91.12
2018-12-04T02:48:02.403Z,91.65
2018-12-04T02:50:31.088Z,90.88
2018-12-04T02:52:59.835Z,90.46
2018-12-04T02:55:28.516Z,90.39
2018-12-04T02:57:57.183Z,90.32
2018-12-04T03:00:25.853Z,89.42
2018-12-04T03:02:54.556Z,89.44
2018-12-04T03:05:23.216Z,89.75
2018-12-04T03:07:51.951Z,90.32
2018-12-04T03:10:20.609Z,89.30
2018-12-04T03:12:49.319Z,89.55
2018-12-04T03:15:18.075Z,90.20
2018-12-04T03:17:46.711Z,89.92
2018-12-04T03:20:15.411Z,90.28
2018-12-04T03:22:44.158Z,89.19
2018-12-04T03:25:12.864Z,88.87
2018-12-04T03:27:41.517Z,88.19
2018-12-04T03:30:10.290Z,88.52
2018-12-04T03:32:39.008Z,88.10
2018-12-04T03:35:07.728Z,88.12
2018-12-04T03:37:36.671Z,88.24
2018-12-04T03:40:07.431Z,88.32
2018-12-04T03:42:36.117Z,88.76
2018-12-04T03:45:05.508Z,88.64
2018-12-04T03:47:34.183Z,88.48
2018-12-04T03:50:02.882Z,88.45
2018-12-04T03:52:31.544Z,88.43
2018-12-04T03:55:00.397Z,88.72
2018-12-04T03:57:29.066Z,88.80
2018-12-04T03:59:57.778Z,87.90
2018-12-04T04:02:26.429Z,88.49
2018-12-04T04:04:55.392Z,88.75
2018-12-04T04:07:24.044Z,88.90
2018-12-04T04:09:52.728Z,89.64
2018-12-04T04:12:21.380Z,88.82
2018-12-04T04:14:50.096Z,88.36
2018-12-04T04:17:18.753Z,88.21
2018-12-04T04:19:47.454Z,88.12
2018-12-04T04:22:16.141Z,89.04
2018-12-04T04:24:44.886Z,87.76
2018-12-04T04:27:13.599Z,88.33
2018-12-04T04:29:42.255Z,88.01
2018-12-04T04:32:17.597Z,88.35
2018-12-04T04:34:46.268Z,88.25
2018-12-04T04:37:14.939Z,87.56
2018-12-04T04:39:43.589Z,87.89
2018-12-04T04:42:12.219Z,87.14
2018-12-04T04:44:40.955Z,86.71
2018-12-04T04:47:09.640Z,87.71
2018-12-04T04:49:38.308Z,87.62
2018-12-04T04:52:07.013Z,87.25
2018-12-04T04:54:35.736Z,86.76
2018-12-04T04:57:04.507Z,86.51
2018-12-04T04:59:33.170Z,86.94
2018-12-04T05:02:01.869Z,87.10
2018-12-04T05:04:30.800Z,86.33
2018-12-04T05:06:59.544Z,85.77
2018-12-04T05:09:28.320Z,86.13
2018-12-04T05:11:57.057Z,85.77
2018-12-04T05:14:25.720Z,86.32
2018-12-04T05:16:54.387Z,85.31
2018-12-04T05:19:23.076Z,84.95
2018-12-04T05:21:51.716Z,85.16
2018-12-04T05:24:20.474Z,84.80
2018-12-04T05:26:49.142Z,84.67
2018-12-04T05:29:17.789Z,84.32
2018-12-04T05:31:46.452Z,84.73
2018-12-04T05:34:15.146Z,84.27
2018-12-04T05:36:43.775Z,85.02
2018-12-04T05:39:12.432Z,84.02
2018-12-04T05:41:41.169Z,83.32
2018-12-04T05:44:09.860Z,82.92
2018-12-04T05:46:38.493Z,83.02
2018-12-04T05:49:07.225Z,82.27
2018-12-04T05:51:35.920Z,82.60
2018-12-04T05:54:04.732Z,82.84
2018-12-04T05:56:33.366Z,82.87
2018-12-04T05:59:02.145Z,83.27
2018-12-04T06:01:30.790Z,82.34
2018-12-04T06:03:59.692Z,82.97
2018-12-04T06:06:28.433Z,82.59
2018-12-04T06:08:57.109Z,82.85
2018-12-04T06:11:25.752Z,81.98
2018-12-04T06:13:54.431Z,82.07
2018-12-04T06:16:23.183Z,82.17
2018-12-04T06:18:51.896Z,83.01
2018-12-04T06:21:20.607Z,83.92
2018-12-04T06:23:49.283Z,84.47
2018-12-04T06:26:18.250Z,85.74
2018-12-04T06:28:46.940Z,86.09
2018-12-04T06:31:15.720Z,85.40
2018-12-04T06:33:44.438Z,85.71
2018-12-04T06:36:13.229Z,85.37
2018-12-04T06:38:41.970Z,85.07
2018-12-04T06:41:10.704Z,84.26
2018-12-04T06:43:39.403Z,84.53
2018-12-04T06:46:08.155Z,84.24
2018-12-04T06:48:36.944Z,84.54
2018-12-04T06:51:05.612Z,84.46
2018-12-04T06:53:34.270Z,83.03
2018-12-04T06:56:02.981Z,83.53
2018-12-04T06:58:31.657Z,84.20
2018-12-04T07:01:00.507Z,83.92
2018-12-04T07:03:29.262Z,83.65
2018-12-04T07:05:58.060Z,83.40
2018-12-04T07:08:26.876Z,83.22
2018-12-04T07:10:55.522Z,82.99
2018-12-04T07:13:24.320Z,84.03
2018-12-04T07:15:53.005Z,85.28
2018-12-04T07:18:21.654Z,83.80
2018-12-04T07:20:50.295Z,82.46
2018-12-04T07:23:18.992Z,78.61
2018-12-04T07:25:47.839Z,78.67
2018-12-04T07:28:16.493Z,78.06
2018-12-04T07:30:45.373Z,77.27
2018-12-04T07:33:14.128Z,79.29
2018-12-04T07:35:42.879Z,80.33
2018-12-04T07:38:11.598Z,79.67
2018-12-04T07:40:40.405Z,78.60
2018-12-04T07:43:09.504Z,78.86
2018-12-04T07:45:37.934Z,79.05
2018-12-04T07:48:06.580Z,80.27
2018-12-04T07:50:35.240Z,80.15
2018-12-04T07:53:03.969Z,79.02
2018-12-04T07:55:32.760Z,78.83
2018-12-04T07:58:01.503Z,79.66
2018-12-04T08:00:30.325Z,79.57
2018-12-04T08:02:59.090Z,78.66
2018-12-04T08:05:27.736Z,79.34
2018-12-04T08:07:56.401Z,79.13
2018-12-04T08:10:25.206Z,79.04
2018-12-04T08:12:53.909Z,79.77
2018-12-04T08:15:22.588Z,78.81
2018-12-04T08:17:51.268Z,79.14
2018-12-04T08:20:19.908Z,79.27
2018-12-04T08:22:48.583Z,80.28
2018-12-04T08:25:17.353Z,78.88
2018-12-04T08:27:46.139Z,79.62
2018-12-04T08:30:15.090Z,79.16
2018-12-04T08:32:44.100Z,79.79
2018-12-04T08:35:12.754Z,79.72
2018-12-04T08:37:41.391Z,79.76
2018-12-04T08:40:10.053Z,79.51
2018-12-04T08:42:38.776Z,79.72
2018-12-04T08:45:08.483Z,79.83
2018-12-04T08:47:37.271Z,79.48
2018-12-04T08:50:07.064Z,80.25
2018-12-04T08:52:35.775Z,80.93
2018-12-04T08:55:04.493Z,81.09
2018-12-04T08:57:33.244Z,83.01
2018-12-04T09:00:01.975Z,83.78
2018-12-04T09:02:30.611Z,87.28
2018-12-04T09:04:59.288Z,87.80
2018-12-04T09:07:28.000Z,87.67
2018-12-04T09:09:56.633Z,86.65
2018-12-04T09:12:25.304Z,86.37
2018-12-04T09:14:54.032Z,86.29
2018-12-04T09:17:22.680Z,86.54
2018-12-04T09:19:51.340Z,85.87
2018-12-04T09:22:20.083Z,85.42
2018-12-04T09:24:48.810Z,84.53
2018-12-04T09:27:17.485Z,83.24
2018-12-04T09:29:46.321Z,85.15
2018-12-04T09:32:15.071Z,83.42
2018-12-04T09:34:43.832Z,82.94
2018-12-04T09:37:12.547Z,83.00
2018-12-04T09:39:41.160Z,82.38
2018-12-04T09:42:09.954Z,84.18
2018-12-04T09:44:38.620Z,83.60
2018-12-04T09:47:07.351Z,83.42
2018-12-04T09:49:36.082Z,81.70
2018-12-04T09:52:04.799Z,82.20
2018-12-04T09:54:33.434Z,81.39
2018-12-04T09:57:02.077Z,81.05
2018-12-04T09:59:30.708Z,81.19
2018-12-04T10:01:59.374Z,80.64
2018-12-04T10:04:28.110Z,81.28
2018-12-04T10:06:56.751Z,79.33
2018-12-04T10:09:25.453Z,78.05
2018-12-04T10:11:57.325Z,79.39
2018-12-04T10:14:26.025Z,80.23
2018-12-04T10:16:54.892Z,79.85
2018-12-04T10:19:23.667Z,80.17
2018-12-04T10:21:52.504Z,79.46
2018-12-04T10:24:21.098Z,80.09
2018-12-04T10:26:53.892Z,77.97
2018-12-04T10:29:22.677Z,78.54
2018-12-04T10:31:55.985Z,79.93
2018-12-04T10:34:20.029Z,78.85
2018-12-04T10:36:48.801Z,79.29
2018-12-04T10:39:17.472Z,78.20
2018-12-04T10:41:46.295Z,78.95
2018-12-04T10:44:14.972Z,78.81
2018-12-04T10:46:43.649Z,78.22
2018-12-04T10:49:12.410Z,78.87
2018-12-04T10:51:41.069Z,78.69
2018-12-04T10:54:09.767Z,78.58
2018-12-04T10:56:38.632Z,77.76
2018-12-04T10:59:07.392Z,78.72
2018-12-04T11:01:41.314Z,76.52
2018-12-04T11:04:09.964Z,78.26
2018-12-04T11:06:38.655Z,78.14
2018-12-04T11:09:39.212Z,78.24
2018-12-04T11:12:12.236Z,78.71
2018-12-04T11:14:38.651Z,77.96
2018-12-04T11:17:07.286Z,78.52
2018-12-04T11:19:35.981Z,78.44
2018-12-04T11:22:04.851Z,78.08
2018-12-04T11:24:33.501Z,78.91
2018-12-04T11:27:02.160Z,79.53
2018-12-04T11:29:30.832Z,79.25
2018-12-04T11:31:59.536Z,79.06
2018-12-04T11:34:28.211Z,78.49
2018-12-04T11:36:56.828Z,77.30
2018-12-04T11:39:25.484Z,76.25
2018-12-04T11:41:54.204Z,75.83
2018-12-04T11:44:24.114Z,76.76
2018-12-04T11:46:53.052Z,76.99
2018-12-04T11:49:21.914Z,76.25
2018-12-04T11:51:50.506Z,73.79
2018-12-04T11:54:19.205Z,75.24
2018-12-04T11:56:47.849Z,73.56
2018-12-04T11:59:16.582Z,74.40
2018-12-04T12:01:45.274Z,73.95
2018-12-04T12:04:13.997Z,73.35
2018-12-04T12:06:42.624Z,73.27
2018-12-04T12:09:11.375Z,73.55
2018-12-04T12:11:39.979Z,72.19
2018-12-04T12:14:08.612Z,72.99
2018-12-04T12:16:37.266Z,71.43
2018-12-04T12:19:06.040Z,69.32
2018-12-04T12:21:34.788Z,70.55
2018-12-04T12:24:04.069Z,69.78
2018-12-04T12:26:32.672Z,68.84
2018-12-04T12:29:01.384Z,69.63
2018-12-04T12:31:29.984Z,70.60
2018-12-04T12:33:58.599Z,70.44
2018-12-04T12:36:27.212Z,70.06
2018-12-04T12:38:55.852Z,69.76
2018-12-04T12:41:24.476Z,70.39
2018-12-04T12:43:53.110Z,70.18
2018-12-04T12:46:22.156Z,70.52
2018-12-04T12:48:50.804Z,71.00
2018-12-04T12:51:19.614Z,71.13
2018-12-04T12:53:48.286Z,72.22
2018-12-04T12:56:16.926Z,72.07
2018-12-04T12:58:45.968Z,71.48
2018-12-04T13:01:14.720Z,71.57
2018-12-04T13:03:43.492Z,71.78
2018-12-04T13:06:12.907Z,71.41
2018-12-04T13:08:41.549Z,71.14
2018-12-04T13:11:10.163Z,71.37
2018-12-04T13:13:38.885Z,71.28
2018-12-04T13:16:07.491Z,71.36
2018-12-04T13:18:36.128Z,71.47
2018-12-04T13:21:04.803Z,71.12
2018-12-04T13:23:33.579Z,71.12
2018-12-04T13:26:02.453Z,71.87
2018-12-04T13:28:31.087Z,72.63
2018-12-04T13:30:59.925Z,71.25
2018-12-04T13:33:28.684Z,72.18
2018-12-04T13:35:57.320Z,71.06
2018-12-04T13:38:26.582Z,70.88
2018-12-04T13:40:55.309Z,70.57
2018-12-04T13:43:24.131Z,70.65
2018-12-04T13:45:52.792Z,71.35
2018-12-04T13:48:21.498Z,70.23
2018-12-04T13:50:50.125Z,70.77
2018-12-04T13:53:18.859Z,69.26
2018-12-04T13:55:47.557Z,67.79
2018-12-04T13:58:16.279Z,64.14
2018-12-04T14:00:46.368Z,61.19
2018-12-04T14:03:15.206Z,61.43
2018-12-04T14:05:43.891Z,61.61
2018-12-04T14:08:12.563Z,60.29
2018-12-04T14:10:41.249Z,61.58
2018-12-04T14:13:09.898Z,61.41
2018-12-04T14:15:38.683Z,60.93
2018-12-04T14:18:07.308Z,61.40
2018-12-04T14:20:36.169Z,60.51
2018-12-04T14:23:04.880Z,61.00
2018-12-04T14:25:33.686Z,61.35
2018-12-04T14:28:02.529Z,61.84
2018-12-04T14:30:31.297Z,62.88
2018-12-04T14:33:00.026Z,61.72
2018-12-04T14:35:28.690Z,62.45
2018-12-04T14:37:57.471Z,61.07
2018-12-04T14:40:26.176Z,61.97
2018-12-04T14:42:56.017Z,61.53
2018-12-04T14:45:24.797Z,62.15
2018-12-04T14:47:53.565Z,62.89
2018-12-04T14:50:22.292Z,61.20
2018-12-04T14:52:51.042Z,62.12
2018-12-04T14:55:19.698Z,62.89
2018-12-04T14:57:48.550Z,62.49
2018-12-04T15:00:17.348Z,63.03
2018-12-04T15:02:46.016Z,62.67
2018-12-04T15:05:14.628Z,62.63
2018-12-04T15:07:43.407Z,62.63
2018-12-04T15:10:12.151Z,62.71
2018-12-04T15:12:40.846Z,63.02
2018-12-04T15:15:09.747Z,63.48
2018-12-04T15:17:38.563Z,63.68
2018-12-04T15:20:08.753Z,64.05
2018-12-04T15:22:37.541Z,63.00
2018-12-04T15:25:06.794Z,63.02
2018-12-04T15:27:35.614Z,62.99
2018-12-04T15:30:05.490Z,63.08
2018-12-04T15:32:34.309Z,64.46
2018-12-04T15:35:03.239Z,63.74
2018-12-04T15:37:32.158Z,63.03
2018-12-04T15:40:00.846Z,63.53
2018-12-04T15:42:29.583Z,64.02
2018-12-04T15:44:58.233Z,64.07
2018-12-04T15:47:26.997Z,64.30
2018-12-04T15:49:55.766Z,64.92
2018-12-04T15:52:24.563Z,65.30
2018-12-04T15:54:53.224Z,64.50
2018-12-04T15:57:21.858Z,65.05
2018-12-04T15:59:50.468Z,64.51
2018-12-04T16:02:19.327Z,65.11
2018-12-04T16:04:47.969Z,65.05
2018-12-04T16:07:16.630Z,66.11
2018-12-04T16:09:45.283Z,65.33
2018-12-04T16:12:14.055Z,65.34
2018-12-04T16:14:42.896Z,66.06
2018-12-04T16:17:15.206Z,65.87
2018-12-04T16:19:42.460Z,66.98
2018-12-04T16:22:11.128Z,66.61
2018-12-04T16:24:39.820Z,68.05
2018-12-04T16:27:08.445Z,67.43
2018-12-04T16:29:37.135Z,68.23
2018-12-04T16:32:05.866Z,67.71
2018-12-04T16:34:34.625Z,67.88
2018-12-04T16:37:03.362Z,69.17
2018-12-04T16:39:32.038Z,69.18
2018-12-04T16:42:00.722Z,68.35
2018-12-04T16:44:29.381Z,68.86
2018-12-04T16:46:58.096Z,69.13
2018-12-04T16:49:26.728Z,69.57
2018-12-04T16:51:55.536Z,69.60
2018-12-04T16:54:24.142Z,69.99
2018-12-04T16:56:52.856Z,68.99
2018-12-04T16:59:21.689Z,69.14
2018-12-04T17:01:51.280Z,69.11
2018-12-04T17:04:19.999Z,68.84
2018-12-04T17:06:48.652Z,69.45
2018-12-04T17:09:17.284Z,68.71
2018-12-04T17:11:46.047Z,69.95
2018-12-04T17:14:14.752Z,68.99
2018-12-04T17:16:43.394Z,69.12
2018-12-04T17:19:12.357Z,69.90
2018-12-04T17:21:40.992Z,68.77
2018-12-04T17:24:09.584Z,68.81
2018-12-04T17:26:38.545Z,69.49
2018-12-04T17:29:07.468Z,69.32
2018-12-04T17:31:36.100Z,69.34
2018-12-04T17:34:04.752Z,69.87
2018-12-04T17:36:33.472Z,70.24
2018-12-04T17:39:02.956Z,70.79
2018-12-04T17:41:31.599Z,71.20
2018-12-04T17:44:00.208Z,71.74
2018-12-04T17:46:29.040Z,69.84
2018-12-04T17:48:57.716Z,70.38
2018-12-04T17:51:26.424Z,70.75
2018-12-04T17:53:55.144Z,70.64
2018-12-04T17:56:23.839Z,70.05
2018-12-04T17:58:52.648Z,70.48
2018-12-04T18:01:21.363Z,70.03
2018-12-04T18:03:50.033Z,69.93
2018-12-04T18:06:18.706Z,69.99
2018-12-04T18:08:47.384Z,70.18
2018-12-04T18:11:16.159Z,70.90
2018-12-04T18:13:44.844Z,70.79
2018-12-04T18:16:13.488Z,71.23
2018-12-04T18:18:42.136Z,72.52
2018-12-04T18:21:10.800Z,72.24
2018-12-04T18:23:39.526Z,72.94
2018-12-04T18:26:08.255Z,74.28
2018-12-04T18:28:36.898Z,74.03
2018-12-04T18:31:05.547Z,74.67
2018-12-04T18:33:34.208Z,74.69
2018-12-04T18:36:03.309Z,74.36
2018-12-04T18:38:32.004Z,75.43
2018-12-04T18:41:00.630Z,75.87
2018-12-04T18:43:29.241Z,76.76
2018-12-04T18:45:57.920Z,76.00
2018-12-04T18:48:26.587Z,76.38
2018-12-04T18:50:55.650Z,75.35
2018-12-04T18:53:24.464Z,76.55
2018-12-04T18:55:53.323Z,76.29
2018-12-04T18:58:21.945Z,75.94
2018-12-04T19:00:50.701Z,75.93
2018-12-04T19:03:19.317Z,77.05
2018-12-04T19:05:48.040Z,76.62
2018-12-04T19:08:16.704Z,76.80
2018-12-04T19:10:45.552Z,76.75
2018-12-04T19:13:14.391Z,76.67
2018-12-04T19:15:43.102Z,76.88
2018-12-04T19:18:11.755Z,77.55
2018-12-04T19:20:42.217Z,77.44
2018-12-04T19:23:11.132Z,77.39
2018-12-04T19:25:39.896Z,77.44
2018-12-04T19:28:08.940Z,76.72
2018-12-04T19:30:37.786Z,76.33
2018-12-04T19:33:06.395Z,76.98
2018-12-04T19:35:35.109Z,77.21
2018-12-04T19:38:03.819Z,76.66
2018-12-04T19:40:32.513Z,76.94
2018-12-04T19:43:01.145Z,77.15
2018-12-04T19:45:29.776Z,76.89
2018-12-04T19:47:58.447Z,77.69
2018-12-04T19:50:27.297Z,77.58
2018-12-04T19:52:56.141Z,77.50
2018-12-04T19:55:24.788Z,77.83
2018-12-04T19:57:53.399Z,77.16
2018-12-04T20:00:22.041Z,77.81
2018-12-04T20:02:50.685Z,78.65
2018-12-04T20:05:19.419Z,78.80
2018-12-04T20:07:48.052Z,77.88
2018-12-04T20:10:16.840Z,77.93
2018-12-04T20:12:45.465Z,78.99
2018-12-04T20:15:14.127Z,78.19
2018-12-04T20:17:42.717Z,79.45
2018-12-04T20:20:11.527Z,78.14
2018-12-04T20:22:40.159Z,78.55
2018-12-04T20:25:09.194Z,78.90
2018-12-04T20:27:37.800Z,78.32
2018-12-04T20:30:08.029Z,78.29
2018-12-04T20:32:36.660Z,77.49
2018-12-04T20:35:06.205Z,77.67
2018-12-04T20:37:34.855Z,78.73
2018-12-04T20:40:04.231Z,78.04
2018-12-04T20:42:32.832Z,76.49
2018-12-04T20:45:01.625Z,77.58
2018-12-04T20:47:30.829Z,76.89
2018-12-04T20:49:59.536Z,77.78
2018-12-04T20:52:28.251Z,77.88
2018-12-04T20:54:57.130Z,77.71
2018-12-04T20:57:25.776Z,78.53
2018-12-04T20:59:54.565Z,78.14
2018-12-04T21:02:23.332Z,78.20
2018-12-04T21:04:51.991Z,78.22
2018-12-04T21:07:20.715Z,77.56
2018-12-04T21:09:49.356Z,78.88
2018-12-04T21:12:18.104Z,78.67
2018-12-04T21:14:46.808Z,79.12
2018-12-04T21:17:15.584Z,78.00
2018-12-04T21:19:44.309Z,78.18
2018-12-04T21:22:12.930Z,77.78
2018-12-04T21:24:41.576Z,77.48
2018-12-04T21:27:14.325Z,77.46
2018-12-04T21:29:48.336Z,77.72
2018-12-04T21:32:22.243Z,78.86
2018-12-04T21:34:56.128Z,78.21
2018-12-04T21:37:29.859Z,77.84
2018-12-04T21:40:04.422Z,78.05
2018-12-04T21:42:38.547Z,78.09
2018-12-04T21:45:12.312Z,77.91
2018-12-04T21:48:03.898Z,77.95
2018-12-04T21:50:32.657Z,77.98
2018-12-04T21:53:01.313Z,77.71
2018-12-04T21:55:29.967Z,77.96
2018-12-04T21:57:58.663Z,77.69
2018-12-04T22:00:27.354Z,76.66
2018-12-04T22:02:55.952Z,77.95
2018-12-04T22:05:24.632Z,77.76
2018-12-04T22:07:53.260Z,78.72
2018-12-04T22:10:22.029Z,78.25
2018-12-04T22:12:50.749Z,78.76
2018-12-04T22:15:19.496Z,78.33
2018-12-04T22:17:48.188Z,78.55
2018-12-04T22:20:16.971Z,78.64
2018-12-04T22:22:45.561Z,79.68
2018-12-04T22:25:14.397Z,79.72
2018-12-04T22:27:43.112Z,80.06
2018-12-04T22:30:12.122Z,79.26
2018-12-04T22:32:40.896Z,79.88
2018-12-04T22:35:09.577Z,78.95
2018-12-04T22:37:38.297Z,78.92
2018-12-04T22:40:07.476Z,79.61
2018-12-04T22:42:36.178Z,79.57
2018-12-04T22:45:10.497Z,78.91
2018-12-04T22:47:39.280Z,79.05
2018-12-04T22:50:08.377Z,78.45
2018-12-04T22:52:37.162Z,77.97
2018-12-04T22:55:06.189Z,77.96
2018-12-04T22:57:34.920Z,78.49
2018-12-04T23:00:06.566Z,78.71
2018-12-04T23:02:35.996Z,79.51
2018-12-04T23:05:05.448Z,79.18
2018-12-04T23:07:34.201Z,78.98
2018-12-04T23:10:02.828Z,79.09
2018-12-04T23:12:31.783Z,78.53
2018-12-04T23:15:00.444Z,78.48
2018-12-04T23:17:29.122Z,78.48
2018-12-04T23:19:58.004Z,77.82
2018-12-04T23:22:26.697Z,78.09
2018-12-04T23:24:55.529Z,77.51
2018-12-04T23:27:24.180Z,78.11
2018-12-04T23:29:52.896Z,78.19
2018-12-04T23:32:21.507Z,78.04
2018-12-04T23:34:50.228Z,77.88
2018-12-04T23:37:19.084Z,78.92
2018-12-04T23:39:47.689Z,78.23
2018-12-04T23:42:16.524Z,77.53
2018-12-04T23:44:45.236Z,77.18
2018-12-04T23:47:13.965Z,78.61
2018-12-04T23:49:42.711Z,78.28
2018-12-04T23:52:11.663Z,77.80
2018-12-04T23:54:40.541Z,77.79
2018-12-04T23:57:09.336Z,78.16
2018-12-04T23:59:38.120Z,78.28
